createdAt,value
2019-04-10T00:00:51.123Z,3.00
2019-04-10T00:03:28.924Z,3.43
2019-04-10T00:05:52.199Z,3.20
2019-04-10T00:08:21.948Z,3.10
2019-04-10T00:10:52.200Z,3.37
2019-04-10T00:13:22.625Z,3.17
2019-04-10T00:15:52.868Z,3.23
2019-04-10T00:18:22.528Z,3.20
2019-04-10T00:20:53.119Z,2.60
2019-04-10T00:23:22.857Z,2.60
2019-04-10T00:25:53.022Z,2.80
2019-04-10T00:28:23.450Z,2.90
2019-04-10T00:30:53.567Z,3.17
2019-04-10T00:33:23.241Z,2.80
2019-04-10T00:35:53.900Z,2.80
2019-04-10T00:38:24.057Z,2.67
2019-04-10T00:40:53.767Z,2.53
2019-04-10T00:43:24.521Z,2.80
2019-04-10T00:45:54.322Z,2.60
2019-04-10T00:48:24.083Z,2.77
2019-04-10T00:50:53.667Z,2.53
2019-04-10T00:53:23.320Z,2.70
2019-04-10T00:55:52.931Z,2.17
2019-04-10T00:58:22.634Z,2.40
2019-04-10T01:00:52.264Z,2.60
2019-04-10T01:03:40.092Z,2.33
2019-04-10T01:06:09.808Z,2.80
2019-04-10T01:08:40.460Z,2.50
2019-04-10T01:11:10.689Z,2.33
2019-04-10T01:13:41.118Z,2.30
2019-04-10T01:16:11.390Z,2.40
2019-04-10T01:18:41.604Z,2.40
2019-04-10T01:21:12.408Z,2.17
2019-04-10T01:23:42.154Z,1.87
2019-04-10T01:26:12.712Z,2.23
2019-04-10T01:28:42.456Z,2.00
2019-04-10T01:31:12.914Z,1.90
2019-04-10T01:33:43.043Z,1.80
2019-04-10T01:36:13.148Z,2.20
2019-04-10T01:38:43.789Z,1.77
2019-04-10T01:41:13.750Z,2.00
2019-04-10T01:43:43.466Z,2.00
2019-04-10T01:46:13.817Z,1.60
2019-04-10T01:48:44.034Z,2.00
2019-04-10T01:51:14.839Z,2.00
2019-04-10T01:53:44.762Z,1.57
2019-04-10T01:56:22.024Z,1.57
2019-04-10T01:58:47.732Z,1.60
2019-04-10T02:01:24.247Z,1.60
2019-04-10T02:03:54.250Z,1.40
2019-04-10T02:06:25.232Z,1.80
2019-04-10T02:08:54.981Z,1.40
2019-04-10T02:11:25.868Z,1.80
2019-04-10T02:13:56.715Z,1.70
2019-04-10T02:16:27.229Z,1.60
2019-04-10T02:18:57.700Z,1.33
2019-04-10T02:21:27.536Z,1.40
2019-04-10T02:23:57.213Z,1.50
2019-04-10T02:26:27.667Z,1.57
2019-04-10T02:28:57.634Z,1.20
2019-04-10T02:31:28.561Z,1.40
2019-04-10T02:33:59.915Z,1.30
2019-04-10T02:36:31.543Z,1.40
2019-04-10T02:39:12.219Z,1.47
2019-04-10T02:41:34.452Z,1.60
2019-04-10T02:44:04.837Z,1.43
2019-04-10T02:46:34.628Z,1.43
2019-04-10T02:49:05.969Z,1.63
2019-04-10T02:51:35.987Z,1.73
2019-04-10T02:54:05.871Z,1.40
2019-04-10T02:56:36.654Z,1.70
2019-04-10T02:59:07.418Z,1.47
2019-04-10T03:01:38.067Z,1.70
2019-04-10T03:04:09.744Z,1.90
2019-04-10T03:06:39.715Z,2.00
2019-04-10T03:09:28.922Z,2.10
2019-04-10T03:11:42.048Z,1.93
2019-04-10T03:14:12.493Z,1.90
2019-04-10T03:16:42.199Z,1.80
2019-04-10T03:19:11.797Z,2.40
2019-04-10T03:21:41.438Z,3.27
2019-04-10T03:24:11.848Z,2.13
2019-04-10T03:26:41.620Z,2.00
2019-04-10T03:29:11.606Z,2.20
2019-04-10T03:31:41.758Z,2.20
2019-04-10T03:34:21.193Z,2.20
2019-04-10T03:36:48.701Z,2.20
2019-04-10T03:39:18.396Z,2.20
2019-04-10T03:41:48.451Z,2.17
2019-04-10T03:44:18.709Z,2.37
2019-04-10T03:46:49.042Z,2.20
2019-04-10T03:49:19.913Z,2.20
2019-04-10T03:51:49.803Z,2.47
2019-04-10T03:54:19.420Z,2.67
2019-04-10T03:56:49.992Z,2.33
2019-04-10T03:59:20.171Z,2.57
2019-04-10T04:01:49.847Z,2.63
2019-04-10T04:04:19.691Z,2.43
2019-04-10T04:06:50.233Z,2.40
2019-04-10T04:09:19.930Z,16.07
2019-04-10T04:11:50.279Z,21.90
2019-04-10T04:14:20.058Z,2.80
2019-04-10T04:16:49.726Z,2.60
2019-04-10T04:19:19.313Z,2.47
2019-04-10T04:21:48.919Z,2.60
2019-04-10T04:24:21.160Z,3.20
2019-04-10T04:26:50.828Z,2.80
2019-04-10T04:29:20.655Z,2.90
2019-04-10T04:31:50.691Z,3.20
2019-04-10T04:34:20.895Z,3.00
2019-04-10T04:36:51.677Z,3.30
2019-04-10T04:39:26.418Z,2.80
2019-04-10T04:41:52.657Z,3.10
2019-04-10T04:44:22.366Z,2.83
2019-04-10T04:46:52.713Z,2.80
2019-04-10T04:49:22.453Z,2.97
2019-04-10T04:51:52.666Z,3.70
2019-04-10T04:54:23.294Z,3.70
2019-04-10T04:56:52.904Z,4.07
2019-04-10T04:59:22.604Z,4.30
2019-04-10T05:01:52.950Z,4.20
2019-04-10T05:04:22.945Z,4.20
2019-04-10T05:06:52.885Z,4.43
2019-04-10T05:09:31.239Z,3.77
2019-04-10T05:11:53.834Z,4.17
2019-04-10T05:14:23.840Z,4.53
2019-04-10T05:16:53.501Z,3.87
2019-04-10T05:19:23.154Z,4.70
2019-04-10T05:21:53.905Z,5.17
2019-04-10T05:24:24.091Z,4.63
2019-04-10T05:26:53.803Z,4.97
2019-04-10T05:29:23.526Z,4.80
2019-04-10T05:31:53.257Z,4.93
2019-04-10T05:34:22.881Z,5.20
2019-04-10T05:36:52.441Z,4.97
2019-04-10T05:39:22.488Z,4.57
2019-04-10T05:41:52.038Z,5.37
2019-04-10T05:44:23.499Z,5.10
2019-04-10T05:46:53.438Z,5.40
2019-04-10T05:49:23.342Z,5.60
2019-04-10T05:51:55.582Z,5.63
2019-04-10T05:54:26.977Z,5.97
2019-04-10T05:56:59.040Z,5.63
2019-04-10T05:59:30.184Z,6.10
2019-04-10T06:02:01.187Z,5.83
2019-04-10T06:04:31.598Z,6.30
2019-04-10T06:07:03.025Z,6.47
2019-04-10T06:09:34.615Z,6.27
2019-04-10T06:12:49.017Z,6.90
2019-04-10T06:15:19.533Z,6.43
2019-04-10T06:17:58.709Z,6.63
2019-04-10T06:20:29.579Z,6.70
2019-04-10T06:22:59.410Z,6.60
2019-04-10T06:25:31.075Z,6.77
2019-04-10T06:28:01.099Z,6.60
2019-04-10T06:30:30.720Z,6.90
2019-04-10T06:33:00.371Z,7.10
2019-04-10T06:35:30.264Z,7.53
2019-04-10T06:38:00.053Z,7.30
2019-04-10T06:40:30.582Z,6.80
2019-04-10T06:43:01.021Z,7.10
2019-04-10T06:45:31.649Z,6.97
2019-04-10T06:48:01.280Z,6.80
2019-04-10T06:50:31.625Z,7.03
2019-04-10T06:53:01.286Z,6.83
2019-04-10T06:55:30.862Z,6.73
2019-04-10T06:58:00.878Z,7.47
2019-04-10T07:00:30.844Z,7.30
2019-04-10T07:03:00.969Z,7.30
2019-04-10T07:05:37.953Z,7.27
2019-04-10T07:08:10.958Z,8.07
2019-04-10T07:10:45.373Z,7.23
2019-04-10T07:13:07.715Z,8.03
2019-04-10T07:15:36.412Z,7.30
2019-04-10T07:18:08.115Z,7.17
2019-04-10T07:20:37.879Z,7.33
2019-04-10T07:23:07.550Z,6.77
2019-04-10T07:25:37.518Z,7.20
2019-04-10T07:28:08.768Z,7.47
2019-04-10T07:30:38.560Z,7.17
2019-04-10T07:33:08.255Z,7.57
2019-04-10T07:35:38.352Z,7.03
2019-04-10T07:38:08.180Z,7.17
2019-04-10T07:40:38.737Z,7.77
2019-04-10T07:43:08.600Z,6.93
2019-04-10T07:45:38.163Z,7.97
2019-04-10T07:48:08.703Z,7.77
2019-04-10T07:50:39.056Z,7.33
2019-04-10T07:53:08.892Z,7.90
2019-04-10T07:55:39.737Z,7.90
2019-04-10T07:58:09.634Z,8.00
2019-04-10T08:00:39.283Z,7.33
2019-04-10T08:03:08.866Z,8.00
2019-04-10T08:05:38.535Z,7.37
2019-04-10T08:08:08.669Z,7.83
2019-04-10T08:10:38.415Z,8.30
2019-04-10T08:13:08.575Z,7.73
2019-04-10T08:15:38.253Z,7.43
2019-04-10T08:18:07.829Z,7.40
2019-04-10T08:20:38.133Z,7.80
2019-04-10T08:23:08.905Z,8.10
2019-04-10T08:25:38.847Z,9.00
2019-04-10T08:28:09.208Z,8.13
2019-04-10T08:30:39.815Z,8.13
2019-04-10T08:33:09.852Z,8.23
2019-04-10T08:35:39.871Z,8.43
2019-04-10T08:38:09.804Z,8.87
2019-04-10T08:40:40.387Z,8.40
2019-04-10T08:43:10.078Z,9.43
2019-04-10T08:45:46.616Z,8.80
2019-04-10T08:48:11.043Z,9.00
2019-04-10T08:50:41.821Z,9.17
2019-04-10T08:53:11.695Z,9.17
2019-04-10T08:55:42.123Z,8.57
2019-04-10T08:58:11.653Z,9.20
2019-04-10T09:00:41.401Z,9.80
2019-04-10T09:03:11.026Z,9.50
2019-04-10T09:05:40.687Z,9.60
2019-04-10T09:08:10.755Z,9.13
2019-04-10T09:10:40.682Z,9.27
2019-04-10T09:13:10.475Z,9.00
2019-04-10T09:15:40.299Z,8.63
2019-04-10T09:18:11.240Z,9.60
2019-04-10T09:20:41.064Z,9.47
2019-04-10T09:23:23.545Z,9.10
2019-04-10T09:25:42.104Z,9.40
2019-04-10T09:28:11.714Z,9.30
2019-04-10T09:30:41.337Z,8.80
2019-04-10T09:33:20.963Z,8.97
2019-04-10T09:35:42.767Z,8.80
2019-04-10T09:38:12.710Z,9.67
2019-04-10T09:40:42.586Z,8.87
2019-04-10T09:43:14.204Z,9.00
2019-04-10T09:45:43.805Z,9.10
2019-04-10T09:48:13.426Z,9.23
2019-04-10T09:50:43.892Z,9.13
2019-04-10T09:53:13.562Z,10.10
2019-04-10T09:55:43.225Z,10.00
2019-04-10T09:58:13.241Z,10.57
2019-04-10T10:00:43.741Z,8.80
2019-04-10T10:03:13.375Z,8.77
2019-04-10T10:05:43.032Z,8.77
2019-04-10T10:08:12.687Z,8.70
2019-04-10T10:10:42.279Z,8.67
2019-04-10T10:13:13.016Z,8.87
2019-04-10T10:15:43.210Z,8.30
2019-04-10T10:18:13.072Z,8.17
2019-04-10T10:20:42.631Z,8.47
2019-04-10T10:23:12.281Z,8.80
2019-04-10T10:25:42.038Z,8.63
2019-04-10T10:28:11.862Z,8.97
2019-04-10T10:30:41.820Z,8.40
2019-04-10T10:33:11.595Z,8.87
2019-04-10T10:35:41.251Z,9.03
2019-04-10T10:38:10.820Z,8.80
2019-04-10T10:40:41.452Z,8.20
2019-04-10T10:43:11.991Z,8.80
2019-04-10T10:45:42.816Z,8.53
2019-04-10T10:48:13.698Z,8.90
2019-04-10T10:50:43.622Z,9.00
2019-04-10T10:53:14.329Z,8.57
2019-04-10T10:55:44.120Z,8.93
2019-04-10T10:58:13.775Z,9.87
2019-04-10T11:00:44.239Z,9.20
2019-04-10T11:03:14.007Z,9.13
2019-04-10T11:05:44.486Z,8.57
2019-04-10T11:08:15.303Z,8.93
2019-04-10T11:10:49.154Z,8.33
2019-04-10T11:13:16.671Z,8.63
2019-04-10T11:15:46.378Z,9.00
2019-04-10T11:18:15.992Z,8.47
2019-04-10T11:20:45.817Z,8.40
2019-04-10T11:23:15.595Z,9.27
2019-04-10T11:25:46.477Z,9.90
2019-04-10T11:28:16.386Z,10.33
2019-04-10T11:30:47.478Z,9.00
2019-04-10T11:33:17.905Z,9.43
2019-04-10T11:35:48.567Z,9.37
2019-04-10T11:38:19.213Z,9.50
2019-04-10T11:40:49.690Z,8.63
2019-04-10T11:43:21.397Z,8.83
2019-04-10T11:45:52.841Z,9.40
2019-04-10T11:48:23.012Z,8.80
2019-04-10T11:50:55.867Z,8.67
2019-04-10T11:53:26.507Z,8.67
2019-04-10T11:55:56.971Z,8.63
2019-04-10T11:58:28.930Z,9.00
2019-04-10T12:01:00.157Z,8.33
2019-04-10T12:03:31.465Z,9.90
2019-04-10T12:06:04.318Z,8.43
2019-04-10T12:13:34.479Z,8.47
2019-04-10T12:16:05.147Z,9.07
2019-04-10T12:18:35.095Z,8.13
2019-04-10T12:21:05.251Z,9.20
2019-04-10T12:23:34.977Z,8.53
2019-04-10T12:26:04.840Z,8.50
2019-04-10T12:28:34.503Z,8.30
2019-04-10T12:31:04.406Z,7.97
2019-04-10T12:33:34.009Z,8.40
2019-04-10T12:36:05.273Z,7.60
2019-04-10T12:38:35.931Z,7.20
2019-04-10T12:41:06.827Z,6.93
2019-04-10T12:43:36.797Z,7.50
2019-04-10T12:46:06.563Z,7.47
2019-04-10T12:48:36.881Z,7.60
2019-04-10T12:51:07.702Z,7.33
2019-04-10T12:53:38.073Z,7.27
2019-04-10T12:56:08.159Z,7.50
2019-04-10T12:58:39.090Z,6.90
2019-04-10T13:01:09.286Z,7.53
2019-04-10T13:03:39.083Z,7.37
2019-04-10T13:06:09.505Z,6.77
2019-04-10T13:08:52.609Z,6.10
2019-04-10T13:11:12.018Z,6.40
2019-04-10T13:13:42.210Z,6.93
2019-04-10T13:16:12.066Z,7.20
2019-04-10T13:18:42.710Z,7.10
2019-04-10T13:21:12.560Z,7.13
2019-04-10T13:23:42.297Z,7.97
2019-04-10T13:26:11.924Z,6.40
2019-04-10T13:31:25.564Z,6.07
2019-04-10T13:33:55.366Z,6.03
2019-04-10T13:36:24.971Z,5.03
2019-04-10T13:38:54.850Z,4.57
2019-04-10T13:41:24.443Z,5.47
2019-04-10T13:43:54.088Z,5.40
2019-04-10T13:46:24.505Z,6.00
2019-04-10T13:48:54.270Z,7.00
2019-04-10T13:51:23.884Z,6.80
2019-04-10T13:53:55.128Z,6.10
2019-04-10T13:56:25.338Z,6.53
2019-04-10T13:58:54.973Z,5.30
2019-04-10T14:01:33.542Z,5.37
2019-04-10T14:04:03.301Z,5.23
2019-04-10T14:06:33.888Z,6.17
2019-04-10T14:09:22.513Z,7.00
2019-04-10T14:11:36.055Z,7.07
2019-04-10T14:14:06.531Z,7.40
2019-04-10T14:16:37.052Z,7.23
2019-04-10T14:19:07.688Z,6.47
2019-04-10T14:21:37.431Z,6.97
2019-04-10T14:24:07.308Z,7.03
2019-04-10T14:27:01.962Z,6.57
2019-04-10T14:29:32.266Z,6.47
2019-04-10T14:32:05.400Z,7.40
2019-04-10T14:34:34.985Z,6.47
2019-04-10T14:37:07.293Z,6.67
2019-04-10T14:39:37.624Z,6.67
2019-04-10T14:42:08.557Z,6.47
2019-04-10T14:44:38.890Z,5.93
2019-04-10T14:47:08.749Z,6.47
2019-04-10T14:49:38.433Z,6.37
2019-04-10T14:52:08.736Z,6.10
2019-04-10T14:54:38.445Z,5.73
2019-04-10T14:57:08.191Z,5.30
2019-04-10T14:59:37.965Z,5.70
2019-04-10T15:02:10.544Z,6.07
2019-04-10T15:04:41.398Z,5.90
2019-04-10T15:07:12.175Z,6.27
2019-04-10T15:09:41.990Z,6.67
2019-04-10T15:12:12.262Z,7.87
2019-04-10T15:14:41.986Z,6.33
2019-04-10T15:17:12.602Z,6.70
2019-04-10T15:19:42.664Z,6.87
2019-04-10T15:22:13.670Z,6.40
2019-04-10T15:24:43.400Z,6.27
2019-04-10T15:27:13.211Z,5.90
2019-04-10T15:29:43.023Z,5.93
2019-04-10T15:32:12.816Z,7.30
2019-04-10T15:34:42.475Z,7.40
2019-04-10T15:37:12.932Z,5.13
2019-04-10T15:39:43.612Z,7.63
2019-04-10T15:42:14.292Z,6.83
2019-04-10T15:44:43.910Z,6.43
2019-04-10T15:47:20.618Z,7.30
2019-04-10T15:49:45.030Z,6.63
2019-04-10T15:52:14.609Z,6.83
2019-04-10T15:54:44.219Z,6.73
2019-04-10T15:57:14.234Z,6.53
2019-04-10T15:59:44.189Z,7.07
2019-04-10T16:02:46.912Z,7.30
2019-04-10T16:05:17.461Z,7.10
2019-04-10T16:07:47.212Z,6.60
2019-04-10T16:10:41.332Z,6.80
2019-04-10T16:13:32.976Z,6.87
2019-04-10T16:16:16.989Z,6.90
2019-04-10T16:18:48.559Z,6.77
2019-04-10T16:21:18.346Z,7.23
2019-04-10T16:23:52.716Z,7.43
2019-04-10T16:26:23.021Z,7.57
2019-04-10T16:28:53.636Z,8.47
2019-04-10T16:31:23.513Z,9.83
2019-04-10T16:33:53.258Z,10.50
2019-04-10T16:36:23.462Z,9.60
2019-04-10T16:38:53.284Z,12.43
2019-04-10T16:41:26.141Z,13.53
2019-04-10T16:43:54.924Z,13.63
2019-04-10T16:46:24.678Z,14.40
2019-04-10T16:48:54.619Z,13.90
2019-04-10T16:51:24.265Z,14.27
2019-04-10T16:53:53.847Z,12.73
2019-04-10T16:56:23.473Z,20.03
2019-04-10T16:59:53.226Z,18.80
2019-04-10T17:02:24.147Z,14.70
2019-04-10T17:04:54.201Z,13.67
2019-04-10T17:07:25.163Z,13.40
2019-04-10T17:09:55.020Z,14.33
2019-04-10T17:12:25.379Z,12.50
2019-04-10T17:14:55.543Z,10.57
2019-04-10T17:17:26.289Z,12.93
2019-04-10T17:19:57.709Z,10.63
2019-04-10T17:33:54.847Z,6.00
2019-04-10T17:40:33.543Z,14.43
2019-04-10T17:42:57.191Z,10.63
2019-04-10T17:45:27.552Z,14.40
2019-04-10T17:47:57.979Z,17.63
2019-04-10T17:50:28.107Z,13.83
2019-04-10T17:52:58.857Z,11.27
2019-04-10T17:55:28.691Z,10.00
2019-04-10T17:57:58.579Z,8.60
2019-04-10T18:00:49.629Z,8.40
2019-04-10T18:03:19.267Z,10.37
2019-04-10T18:05:48.862Z,9.33
2019-04-10T18:08:18.930Z,11.70
2019-04-10T18:10:51.989Z,9.27
2019-04-10T18:13:20.494Z,9.90
2019-04-10T18:15:50.549Z,10.40
2019-04-10T18:18:20.365Z,11.30
2019-04-10T18:20:51.134Z,12.80
2019-04-10T18:23:20.890Z,12.27
2019-04-10T18:25:52.080Z,12.43
2019-04-10T18:28:21.771Z,14.17
2019-04-10T18:30:52.268Z,11.30
2019-04-10T18:33:22.459Z,11.90
2019-04-10T18:35:53.192Z,12.53
2019-04-10T18:38:23.727Z,12.87
2019-04-10T18:41:00.534Z,12.70
2019-04-10T18:43:25.948Z,14.20
2019-04-10T18:46:06.143Z,18.10
2019-04-10T18:48:27.489Z,17.80
2019-04-10T18:50:57.329Z,18.03
2019-04-10T18:53:26.998Z,22.30
2019-04-10T18:55:56.736Z,24.37
2019-04-10T18:58:29.804Z,25.23
2019-04-10T19:01:19.467Z,18.60
2019-04-10T19:04:07.771Z,13.50
2019-04-10T19:07:02.121Z,12.80
2019-04-10T19:09:34.453Z,13.47
2019-04-10T19:12:04.455Z,13.70
2019-04-10T19:14:36.562Z,14.20
2019-04-10T19:17:10.947Z,13.97
2019-04-10T19:19:42.298Z,15.13
2019-04-10T19:22:14.238Z,15.47
2019-04-10T19:24:44.201Z,17.13
2019-04-10T19:27:14.048Z,15.23
2019-04-10T19:29:43.703Z,23.80
2019-04-10T19:32:22.642Z,17.27
2019-04-10T19:34:52.278Z,12.17
2019-04-10T19:37:22.869Z,11.07
2019-04-10T19:39:52.648Z,8.97
2019-04-10T19:42:22.247Z,13.47
2019-04-10T19:44:53.062Z,21.17
2019-04-10T19:47:23.045Z,20.07
2019-04-10T19:49:53.029Z,13.60
2019-04-10T19:52:22.708Z,11.97
2019-04-10T19:54:53.387Z,12.70
2019-04-10T19:57:23.705Z,10.80
2019-04-10T19:59:53.372Z,10.73
2019-04-10T20:02:23.103Z,9.83
2019-04-10T20:04:52.842Z,9.17
2019-04-10T20:07:22.503Z,10.43
2019-04-10T20:09:52.790Z,10.67
2019-04-10T20:12:22.488Z,10.50
2019-04-10T20:14:53.244Z,11.00
2019-04-10T20:17:24.033Z,11.13
2019-04-10T20:19:55.641Z,13.70
2019-04-10T20:22:25.185Z,12.43
2019-04-10T20:24:54.868Z,13.20
2019-04-10T20:27:25.599Z,12.97
2019-04-10T20:29:55.327Z,12.67
2019-04-10T20:32:25.869Z,12.23
2019-04-10T20:34:55.905Z,12.23
2019-04-10T20:37:26.850Z,11.67
2019-04-10T20:39:57.848Z,11.07
2019-04-10T20:42:27.654Z,11.83
2019-04-10T20:44:57.258Z,16.00
2019-04-10T20:47:27.021Z,18.87
2019-04-10T20:49:56.631Z,11.57
2019-04-10T20:52:26.382Z,11.27
2019-04-10T20:54:57.207Z,11.10
2019-04-10T20:57:27.697Z,10.87
2019-04-10T20:59:57.499Z,9.80
2019-04-10T21:02:27.133Z,10.53
2019-04-10T21:05:03.952Z,10.60
2019-04-10T21:07:28.209Z,10.60
2019-04-10T21:09:58.729Z,11.57
2019-04-10T21:12:28.539Z,11.07
2019-04-10T21:14:59.087Z,12.43
2019-04-10T21:17:29.856Z,12.00
2019-04-10T21:20:00.118Z,11.83
2019-04-10T21:22:30.728Z,11.00
2019-04-10T21:25:00.635Z,11.50
2019-04-10T21:27:30.376Z,10.07
2019-04-10T21:30:19.944Z,9.77
2019-04-10T21:33:22.535Z,9.63
2019-04-10T21:35:54.067Z,9.63
2019-04-10T21:38:23.717Z,10.10
2019-04-10T21:40:53.326Z,9.13
2019-04-10T21:43:22.955Z,9.83
2019-04-10T21:45:52.642Z,9.40
2019-04-10T21:48:22.424Z,9.40
2019-04-10T21:50:52.436Z,9.80
2019-04-10T21:53:22.137Z,9.73
2019-04-10T21:55:51.835Z,10.63
2019-04-10T21:58:22.001Z,10.27
2019-04-10T22:01:07.480Z,11.00
2019-04-10T22:03:37.964Z,10.37
2019-04-10T22:06:26.149Z,10.87
2019-04-10T22:09:14.676Z,11.00
2019-04-10T22:11:45.697Z,10.47
2019-04-10T22:14:15.479Z,11.00
2019-04-10T22:16:46.275Z,10.20
2019-04-10T22:19:16.734Z,10.47
2019-04-10T22:21:46.528Z,10.37
2019-04-10T22:24:16.177Z,9.83
2019-04-10T22:26:46.793Z,10.40
2019-04-10T22:29:17.558Z,9.73
2019-04-10T22:31:47.235Z,9.80
2019-04-10T22:34:17.186Z,10.03
2019-04-10T22:36:47.218Z,10.17
2019-04-10T22:39:18.717Z,10.73
2019-04-10T22:41:48.438Z,9.97
2019-04-10T22:44:18.104Z,10.40
2019-04-10T22:46:47.837Z,10.40
2019-04-10T22:49:18.084Z,10.73
2019-04-10T22:51:49.652Z,10.70
2019-04-10T22:54:19.910Z,10.67
2019-04-10T22:56:49.946Z,10.27
2019-04-10T22:59:19.586Z,10.47
2019-04-10T23:02:00.335Z,10.50
2019-04-10T23:04:20.630Z,10.33
2019-04-10T23:06:50.317Z,10.30
2019-04-10T23:09:20.262Z,10.57
2019-04-10T23:11:49.908Z,10.87
2019-04-10T23:14:20.723Z,10.53
2019-04-10T23:16:50.545Z,10.60
2019-04-10T23:19:20.380Z,10.43
2019-04-10T23:21:50.239Z,10.70
2019-04-10T23:24:19.919Z,10.40
2019-04-10T23:26:49.559Z,10.67
2019-04-10T23:29:20.160Z,10.33
2019-04-10T23:31:50.049Z,10.70
2019-04-10T23:34:20.853Z,10.93
2019-04-10T23:36:50.813Z,11.00
2019-04-10T23:39:20.441Z,10.40
2019-04-10T23:41:52.117Z,10.50
2019-04-10T23:44:21.382Z,10.73
2019-04-10T23:46:51.687Z,10.80
2019-04-10T23:49:21.543Z,10.80
2019-04-10T23:51:51.662Z,10.50
2019-04-10T23:54:21.587Z,10.43
2019-04-10T23:56:51.170Z,10.63
2019-04-10T23:59:20.836Z,10.67
